Queen Sapphire — 9V7564 — position and weather

sailwx.info

Track history (hours):
 
Tides and Currents Weather Stations Pressure Air Temp Water Temp Dewpoint Dewpoint Depression Visibility Wind Speed Wind Dir Waves Ship Positions

Queen Sapphire

Last reported at 2015-Feb-22 12:10 UTC. Time now 2015-Mar-01 20:52 UTC.
Position N 02°14' E 101°54'.

Length 200 m; draft 9.4 m.

Type: Cargo ship. MMSI: 564254000.

Date/timePositionNaut miles runAvg speedWind from/ knotsBaromVisibWave heightAir tempDewpointWater temp
2015-Feb-22 12:10N 02°14' E 101°54'1118.8
2015-Feb-22 11:33N 02°07' E 102°04'2120.3
2015-Feb-22 10:32N 01°55' E 102°20'2020.8
2015-Feb-22 09:34N 01°46' E 102°39'7718.9
2015-Feb-22 05:29N 01°09' E 103°46'1415.5
2015-Feb-22 04:33N 01°15' E 103°59'2 1.7
2015-Feb-22 03:04N 01°17' E 104°00'0 0.0
2015-Feb-22 02:22N 01°17' E 104°00'0 0.0
2015-Feb-21 21:10N 01°17' E 104°00'0 0.0
2015-Feb-21 17:28N 01°17' E 104°00'0 0.1
2015-Feb-21 16:29N 01°17' E 104°00'3 3.7
2015-Feb-21 15:33N 01°16' E 103°57'7 6.4
2015-Feb-21 14:29N 01°17' E 104°04'1313.8
2015-Feb-21 13:32N 01°18' E 104°17'  
2015-Feb-18 01:03N 24°25' E 119°15'  
2015-Feb-15 08:32N 38°56' E 118°01'1111.4
2015-Feb-15 07:33N 38°59' E 117°47'0 0.0
2015-Feb-15 06:32N 38°59' E 117°47'0 0.0
2015-Feb-15 05:26N 38°59' E 117°47'0 0.0
2015-Feb-15 04:32N 38°59' E 117°47'0 0.0
2015-Feb-15 03:32N 38°59' E 117°47'0 0.0
2015-Feb-15 02:32N 38°59' E 117°47'0 0.0
2015-Feb-15 01:32N 38°59' E 117°47'0 0.0
2015-Feb-15 00:32N 38°59' E 117°47'0 0.0
2015-Feb-14 23:26N 38°59' E 117°47'0 0.0
2015-Feb-14 22:26N 38°59' E 117°47'0 0.0
2015-Feb-14 21:32N 38°59' E 117°47'0 0.0
2015-Feb-14 20:32N 38°59' E 117°47'0 0.0
2015-Feb-14 19:26N 38°59' E 117°47'0 0.0
2015-Feb-14 18:32N 38°59' E 117°47'0 0.0
2015-Feb-14 17:32N 38°59' E 117°47'0 0.0
2015-Feb-14 15:33N 38°59' E 117°47'6 5.4
2015-Feb-14 14:33N 38°57' E 117°53'10 7.1
2015-Feb-14 13:08N 38°56' E 118°06'15813.6
2015-Feb-14 01:33N 38°26' E 121°25'1616.3
2015-Feb-14 00:33N 38°19' E 121°44'  
Track history (hours):
 
Tides and Currents Weather Stations Pressure Air Temp Water Temp Dewpoint Dewpoint Depression Visibility Wind Speed Wind Dir Waves Ship Positions

Queen Sapphire

Last reported at 2015-Feb-22 12:10 UTC. Time now 2015-Mar-01 20:52 UTC.
Position N 02°14' E 101°54'.

Length 200 m; draft 9.4 m.

Type: Cargo ship. MMSI: 564254000.

Date/timePositionNaut miles runAvg speedWind from/ knotsBaromVisibWave heightAir tempDewpointWater temp
2015-Feb-22 12:10N 02°14' E 101°54'1118.8
2015-Feb-22 11:33N 02°07' E 102°04'2120.3
2015-Feb-22 10:32N 01°55' E 102°20'2020.8
2015-Feb-22 09:34N 01°46' E 102°39'7718.9
2015-Feb-22 05:29N 01°09' E 103°46'1415.5
2015-Feb-22 04:33N 01°15' E 103°59'2 1.7
2015-Feb-22 03:04N 01°17' E 104°00'0 0.0
2015-Feb-22 02:22N 01°17' E 104°00'0 0.0
2015-Feb-21 21:10N 01°17' E 104°00'0 0.0
2015-Feb-21 17:28N 01°17' E 104°00'0 0.1
2015-Feb-21 16:29N 01°17' E 104°00'3 3.7
2015-Feb-21 15:33N 01°16' E 103°57'7 6.4
2015-Feb-21 14:29N 01°17' E 104°04'1313.8
2015-Feb-21 13:32N 01°18' E 104°17'  
2015-Feb-18 01:03N 24°25' E 119°15'  
2015-Feb-15 08:32N 38°56' E 118°01'1111.4
2015-Feb-15 07:33N 38°59' E 117°47'0 0.0
2015-Feb-15 06:32N 38°59' E 117°47'0 0.0
2015-Feb-15 05:26N 38°59' E 117°47'0 0.0
2015-Feb-15 04:32N 38°59' E 117°47'0 0.0
2015-Feb-15 03:32N 38°59' E 117°47'0 0.0
2015-Feb-15 02:32N 38°59' E 117°47'0 0.0
2015-Feb-15 01:32N 38°59' E 117°47'0 0.0
2015-Feb-15 00:32N 38°59' E 117°47'0 0.0
2015-Feb-14 23:26N 38°59' E 117°47'0 0.0
2015-Feb-14 22:26N 38°59' E 117°47'0 0.0
2015-Feb-14 21:32N 38°59' E 117°47'0 0.0
2015-Feb-14 20:32N 38°59' E 117°47'0 0.0
2015-Feb-14 19:26N 38°59' E 117°47'0 0.0
2015-Feb-14 18:32N 38°59' E 117°47'0 0.0
2015-Feb-14 17:32N 38°59' E 117°47'0 0.0
2015-Feb-14 15:33N 38°59' E 117°47'6 5.4
2015-Feb-14 14:33N 38°57' E 117°53'10 7.1
2015-Feb-14 13:08N 38°56' E 118°06'15813.6
2015-Feb-14 01:33N 38°26' E 121°25'1616.3
2015-Feb-14 00:33N 38°19' E 121°44'  

Dump ship's entire track history